Twin Hills, Alaska
Current Conditions -  °F | °C
As of 4:36 AM on Sunday 21 Dec 2014 (Local Time) from PATG Reporting Station
Clear Clear  
Wind Chill:   Ceiling: Unl
Heat Index: 10°   Visibility: 10mi
Dew Point:   Wind: 6mph
Humidity: 85%   Direction: 350°N
Pressure: 29.12"   Gusts: NA
Location:  59.3265°N, 160.095°W
Report Text: PATG 211336Z AUTO 35005KT 10SM CLR M12/M14 A2912 RMK AO1
Loading
Personal Weather Stations






























Interactive Weather Map New forecast layout! Learn more

10-Day Weather Forecast

Advertisements
Track Severe Weather on mobile